sensor_id;sensor_type;location;lat;lon;timestamp;P1;durP1;ratioP1;P2;durP2;ratioP2
33170;SDS011;19535;50.672;4.206;2022-07-29T00:02:24;3.10;;;2.80;;
33170;SDS011;19535;50.672;4.206;2022-07-29T00:04:52;3.20;;;2.90;;
33170;SDS011;19535;50.672;4.206;2022-07-29T00:07:19;2.90;;;2.70;;
33170;SDS011;19535;50.672;4.206;2022-07-29T00:09:46;2.92;;;2.30;;
33170;SDS011;19535;50.672;4.206;2022-07-29T00:12:18;2.75;;;2.55;;
33170;SDS011;19535;50.672;4.206;2022-07-29T00:14:52;3.15;;;2.85;;
33170;SDS011;19535;50.672;4.206;2022-07-29T00:17:20;2.45;;;2.25;;
33170;SDS011;19535;50.672;4.206;2022-07-29T00:19:47;3.20;;;2.40;;
33170;SDS011;19535;50.672;4.206;2022-07-29T00:22:14;2.83;;;2.20;;
33170;SDS011;19535;50.672;4.206;2022-07-29T00:24:41;2.85;;;2.25;;
33170;SDS011;19535;50.672;4.206;2022-07-29T00:27:08;3.05;;;2.30;;
33170;SDS011;19535;50.672;4.206;2022-07-29T00:29:35;3.03;;;2.20;;
33170;SDS011;19535;50.672;4.206;2022-07-29T00:32:02;2.92;;;2.47;;
33170;SDS011;19535;50.672;4.206;2022-07-29T00:34:30;3.08;;;2.40;;
33170;SDS011;19535;50.672;4.206;2022-07-29T00:37:16;3.83;;;2.20;;
33170;SDS011;19535;50.672;4.206;2022-07-29T00:39:43;2.58;;;2.38;;
33170;SDS011;19535;50.672;4.206;2022-07-29T00:42:10;2.78;;;2.20;;
33170;SDS011;19535;50.672;4.206;2022-07-29T00:44:40;4.18;;;2.60;;
33170;SDS011;19535;50.672;4.206;2022-07-29T00:47:08;2.38;;;2.17;;
33170;SDS011;19535;50.672;4.206;2022-07-29T00:49:36;2.80;;;2.27;;
33170;SDS011;19535;50.672;4.206;2022-07-29T00:52:05;2.72;;;1.95;;
33170;SDS011;19535;50.672;4.206;2022-07-29T00:54:34;2.72;;;2.00;;
33170;SDS011;19535;50.672;4.206;2022-07-29T00:57:09;2.95;;;1.83;;
33170;SDS011;19535;50.672;4.206;2022-07-29T00:59:36;2.40;;;2.20;;
33170;SDS011;19535;50.672;4.206;2022-07-29T01:02:03;3.88;;;2.10;;
33170;SDS011;19535;50.672;4.206;2022-07-29T01:04:30;3.53;;;2.10;;
33170;SDS011;19535;50.672;4.206;2022-07-29T01:06:58;3.45;;;2.10;;
33170;SDS011;19535;50.672;4.206;2022-07-29T01:09:29;3.42;;;1.98;;
33170;SDS011;19535;50.672;4.206;2022-07-29T01:12:10;2.25;;;2.05;;
33170;SDS011;19535;50.672;4.206;2022-07-29T01:14:39;2.55;;;1.90;;
33170;SDS011;19535;50.672;4.206;2022-07-29T01:17:10;2.17;;;1.83;;
33170;SDS011;19535;50.672;4.206;2022-07-29T01:20:00;2.10;;;1.90;;
33170;SDS011;19535;50.672;4.206;2022-07-29T01:22:35;2.15;;;1.85;;
33170;SDS011;19535;50.672;4.206;2022-07-29T01:30:42;1.98;;;1.77;;
33170;SDS011;19535;50.672;4.206;2022-07-29T01:33:13;2.75;;;2.03;;
33170;SDS011;19535;50.672;4.206;2022-07-29T01:36:04;1.77;;;1.67;;
33170;SDS011;19535;50.672;4.206;2022-07-29T01:38:38;2.42;;;1.80;;
33170;SDS011;19535;50.672;4.206;2022-07-29T01:41:07;2.00;;;1.80;;
33170;SDS011;19535;50.672;4.206;2022-07-29T01:43:38;1.90;;;1.70;;
33170;SDS011;19535;50.672;4.206;2022-07-29T01:46:11;1.90;;;1.70;;
33170;SDS011;19535;50.672;4.206;2022-07-29T01:48:48;2.85;;;1.98;;
33170;SDS011;19535;50.672;4.206;2022-07-29T01:51:30;2.00;;;1.75;;
33170;SDS011;19535;50.672;4.206;2022-07-29T01:54:22;2.20;;;1.75;;
33170;SDS011;19535;50.672;4.206;2022-07-29T01:56:53;1.55;;;1.40;;
33170;SDS011;19535;50.672;4.206;2022-07-29T02:01:49;2.50;;;2.03;;
33170;SDS011;19535;50.672;4.206;2022-07-29T02:04:20;3.85;;;1.60;;
33170;SDS011;19535;50.672;4.206;2022-07-29T02:06:57;1.75;;;1.63;;
33170;SDS011;19535;50.672;4.206;2022-07-29T02:09:27;1.50;;;1.40;;
33170;SDS011;19535;50.672;4.206;2022-07-29T02:11:55;1.75;;;1.42;;
33170;SDS011;19535;50.672;4.206;2022-07-29T02:14:22;1.73;;;1.48;;
33170;SDS011;19535;50.672;4.206;2022-07-29T02:16:51;2.15;;;1.67;;
33170;SDS011;19535;50.672;4.206;2022-07-29T02:19:21;2.13;;;1.38;;
33170;SDS011;19535;50.672;4.206;2022-07-29T02:21:48;2.47;;;1.73;;
33170;SDS011;19535;50.672;4.206;2022-07-29T02:24:17;2.92;;;1.60;;
33170;SDS011;19535;50.672;4.206;2022-07-29T02:26:44;1.80;;;1.40;;
33170;SDS011;19535;50.672;4.206;2022-07-29T02:29:12;1.70;;;1.60;;
33170;SDS011;19535;50.672;4.206;2022-07-29T02:31:40;1.42;;;1.33;;
33170;SDS011;19535;50.672;4.206;2022-07-29T02:36:36;1.60;;;1.50;;
33170;SDS011;19535;50.672;4.206;2022-07-29T02:39:04;3.00;;;1.60;;
33170;SDS011;19535;50.672;4.206;2022-07-29T02:41:38;1.60;;;1.48;;
33170;SDS011;19535;50.672;4.206;2022-07-29T02:46:48;2.10;;;1.50;;
33170;SDS011;19535;50.672;4.206;2022-07-29T02:49:30;1.55;;;1.40;;
33170;SDS011;19535;50.672;4.206;2022-07-29T02:52:00;1.65;;;1.50;;
33170;SDS011;19535;50.672;4.206;2022-07-29T02:57:19;2.25;;;1.48;;
33170;SDS011;19535;50.672;4.206;2022-07-29T02:59:50;2.03;;;1.33;;
33170;SDS011;19535;50.672;4.206;2022-07-29T03:04:45;2.67;;;1.55;;
33170;SDS011;19535;50.672;4.206;2022-07-29T03:07:13;1.90;;;1.30;;
33170;SDS011;19535;50.672;4.206;2022-07-29T03:09:41;1.33;;;1.23;;
33170;SDS011;19535;50.672;4.206;2022-07-29T03:12:09;3.22;;;1.60;;
33170;SDS011;19535;50.672;4.206;2022-07-29T03:14:37;1.65;;;1.40;;
33170;SDS011;19535;50.672;4.206;2022-07-29T03:17:04;1.73;;;1.20;;
33170;SDS011;19535;50.672;4.206;2022-07-29T03:19:31;2.33;;;1.20;;
33170;SDS011;19535;50.672;4.206;2022-07-29T03:21:58;1.60;;;1.30;;
33170;SDS011;19535;50.672;4.206;2022-07-29T03:24:32;3.00;;;1.48;;
33170;SDS011;19535;50.672;4.206;2022-07-29T03:27:01;1.35;;;1.25;;
33170;SDS011;19535;50.672;4.206;2022-07-29T03:29:29;1.38;;;1.27;;
33170;SDS011;19535;50.672;4.206;2022-07-29T03:31:59;1.63;;;1.30;;
33170;SDS011;19535;50.672;4.206;2022-07-29T03:34:29;1.30;;;1.10;;
33170;SDS011;19535;50.672;4.206;2022-07-29T03:36:56;2.00;;;1.55;;
33170;SDS011;19535;50.672;4.206;2022-07-29T03:39:24;2.28;;;1.75;;
33170;SDS011;19535;50.672;4.206;2022-07-29T03:41:54;1.60;;;1.48;;
33170;SDS011;19535;50.672;4.206;2022-07-29T03:44:22;1.88;;;1.20;;
33170;SDS011;19535;50.672;4.206;2022-07-29T03:46:50;4.40;;;1.48;;
33170;SDS011;19535;50.672;4.206;2022-07-29T03:49:18;1.27;;;1.17;;
33170;SDS011;19535;50.672;4.206;2022-07-29T03:51:46;1.95;;;1.40;;
33170;SDS011;19535;50.672;4.206;2022-07-29T03:54:13;1.50;;;0.93;;
33170;SDS011;19535;50.672;4.206;2022-07-29T03:56:42;1.60;;;1.30;;
33170;SDS011;19535;50.672;4.206;2022-07-29T03:59:13;2.85;;;1.30;;
33170;SDS011;19535;50.672;4.206;2022-07-29T04:01:40;3.30;;;1.50;;
33170;SDS011;19535;50.672;4.206;2022-07-29T04:04:08;1.40;;;1.30;;
33170;SDS011;19535;50.672;4.206;2022-07-29T04:06:39;2.10;;;1.30;;
33170;SDS011;19535;50.672;4.206;2022-07-29T04:09:06;1.73;;;1.40;;
33170;SDS011;19535;50.672;4.206;2022-07-29T04:11:35;1.35;;;1.20;;
33170;SDS011;19535;50.672;4.206;2022-07-29T04:14:23;2.00;;;1.30;;
33170;SDS011;19535;50.672;4.206;2022-07-29T04:16:50;1.38;;;1.15;;
33170;SDS011;19535;50.672;4.206;2022-07-29T04:19:17;1.60;;;1.17;;
33170;SDS011;19535;50.672;4.206;2022-07-29T04:21:44;1.35;;;1.20;;
33170;SDS011;19535;50.672;4.206;2022-07-29T04:24:11;1.70;;;1.27;;
33170;SDS011;19535;50.672;4.206;2022-07-29T04:26:39;2.17;;;1.02;;
33170;SDS011;19535;50.672;4.206;2022-07-29T04:29:05;2.72;;;1.20;;
33170;SDS011;19535;50.672;4.206;2022-07-29T04:31:32;1.88;;;1.30;;
33170;SDS011;19535;50.672;4.206;2022-07-29T04:33:59;1.08;;;0.98;;
33170;SDS011;19535;50.672;4.206;2022-07-29T04:36:26;2.50;;;1.60;;
33170;SDS011;19535;50.672;4.206;2022-07-29T04:38:55;1.70;;;1.08;;
33170;SDS011;19535;50.672;4.206;2022-07-29T04:41:22;1.65;;;1.10;;
33170;SDS011;19535;50.672;4.206;2022-07-29T04:43:58;1.25;;;1.00;;
33170;SDS011;19535;50.672;4.206;2022-07-29T04:46:27;1.23;;;1.13;;
33170;SDS011;19535;50.672;4.206;2022-07-29T04:48:54;1.23;;;1.13;;
33170;SDS011;19535;50.672;4.206;2022-07-29T04:51:21;1.10;;;1.00;;
33170;SDS011;19535;50.672;4.206;2022-07-29T04:53:48;2.47;;;1.30;;
33170;SDS011;19535;50.672;4.206;2022-07-29T04:56:15;3.80;;;1.10;;
33170;SDS011;19535;50.672;4.206;2022-07-29T04:58:42;1.63;;;1.10;;
33170;SDS011;19535;50.672;4.206;2022-07-29T05:01:09;1.40;;;1.02;;
33170;SDS011;19535;50.672;4.206;2022-07-29T05:03:36;2.30;;;1.10;;
33170;SDS011;19535;50.672;4.206;2022-07-29T05:06:03;1.52;;;1.20;;
33170;SDS011;19535;50.672;4.206;2022-07-29T05:08:30;1.58;;;1.20;;
33170;SDS011;19535;50.672;4.206;2022-07-29T05:10:57;4.60;;;1.63;;
33170;SDS011;19535;50.672;4.206;2022-07-29T05:13:37;5.20;;;4.70;;
33170;SDS011;19535;50.672;4.206;2022-07-29T05:16:12;7.03;;;5.30;;
33170;SDS011;19535;50.672;4.206;2022-07-29T05:18:40;6.07;;;4.13;;
33170;SDS011;19535;50.672;4.206;2022-07-29T05:21:07;6.38;;;4.18;;
33170;SDS011;19535;50.672;4.206;2022-07-29T05:23:34;5.75;;;3.40;;
33170;SDS011;19535;50.672;4.206;2022-07-29T05:26:00;5.25;;;3.53;;
33170;SDS011;19535;50.672;4.206;2022-07-29T05:28:27;3.80;;;3.30;;
33170;SDS011;19535;50.672;4.206;2022-07-29T05:30:54;3.45;;;2.97;;
33170;SDS011;19535;50.672;4.206;2022-07-29T05:33:22;4.28;;;2.60;;
33170;SDS011;19535;50.672;4.206;2022-07-29T05:36:02;4.28;;;2.45;;
33170;SDS011;19535;50.672;4.206;2022-07-29T05:38:32;2.38;;;2.13;;
33170;SDS011;19535;50.672;4.206;2022-07-29T05:40:59;3.45;;;2.40;;
33170;SDS011;19535;50.672;4.206;2022-07-29T05:43:27;3.28;;;2.25;;
33170;SDS011;19535;50.672;4.206;2022-07-29T05:45:54;3.28;;;1.90;;
33170;SDS011;19535;50.672;4.206;2022-07-29T05:48:22;7.25;;;3.58;;
33170;SDS011;19535;50.672;4.206;2022-07-29T05:50:49;5.70;;;3.55;;
33170;SDS011;19535;50.672;4.206;2022-07-29T05:53:16;3.55;;;2.97;;
33170;SDS011;19535;50.672;4.206;2022-07-29T05:55:45;6.10;;;2.95;;
33170;SDS011;19535;50.672;4.206;2022-07-29T05:58:12;5.47;;;3.08;;
33170;SDS011;19535;50.672;4.206;2022-07-29T06:00:39;3.92;;;3.30;;
33170;SDS011;19535;50.672;4.206;2022-07-29T06:03:06;4.50;;;2.55;;
33170;SDS011;19535;50.672;4.206;2022-07-29T06:05:33;3.17;;;2.67;;
33170;SDS011;19535;50.672;4.206;2022-07-29T06:08:00;4.00;;;2.60;;
33170;SDS011;19535;50.672;4.206;2022-07-29T06:10:27;2.00;;;1.90;;
33170;SDS011;19535;50.672;4.206;2022-07-29T06:12:54;3.90;;;2.00;;
33170;SDS011;19535;50.672;4.206;2022-07-29T06:15:21;2.88;;;2.00;;
33170;SDS011;19535;50.672;4.206;2022-07-29T06:17:48;2.90;;;2.08;;
33170;SDS011;19535;50.672;4.206;2022-07-29T06:20:27;3.78;;;1.95;;
33170;SDS011;19535;50.672;4.206;2022-07-29T06:22:58;2.40;;;1.80;;
33170;SDS011;19535;50.672;4.206;2022-07-29T06:25:25;3.42;;;2.08;;
33170;SDS011;19535;50.672;4.206;2022-07-29T06:27:55;3.83;;;1.70;;
33170;SDS011;19535;50.672;4.206;2022-07-29T06:30:23;2.42;;;1.67;;
33170;SDS011;19535;50.672;4.206;2022-07-29T06:32:50;3.97;;;1.88;;
33170;SDS011;19535;50.672;4.206;2022-07-29T06:35:17;2.28;;;1.70;;
33170;SDS011;19535;50.672;4.206;2022-07-29T06:38:04;5.03;;;1.90;;
33170;SDS011;19535;50.672;4.206;2022-07-29T06:40:51;6.50;;;4.15;;
33170;SDS011;19535;50.672;4.206;2022-07-29T06:43:35;4.70;;;4.20;;
33170;SDS011;19535;50.672;4.206;2022-07-29T06:46:19;6.20;;;4.07;;
33170;SDS011;19535;50.672;4.206;2022-07-29T06:48:47;6.45;;;3.97;;
33170;SDS011;19535;50.672;4.206;2022-07-29T06:51:15;5.53;;;3.63;;
33170;SDS011;19535;50.672;4.206;2022-07-29T06:53:48;4.25;;;3.10;;
33170;SDS011;19535;50.672;4.206;2022-07-29T06:56:27;5.15;;;2.83;;
33170;SDS011;19535;50.672;4.206;2022-07-29T06:59:05;5.38;;;2.92;;
33170;SDS011;19535;50.672;4.206;2022-07-29T07:01:33;3.38;;;2.55;;
33170;SDS011;19535;50.672;4.206;2022-07-29T07:04:01;4.80;;;2.70;;
33170;SDS011;19535;50.672;4.206;2022-07-29T07:06:28;7.43;;;2.63;;
33170;SDS011;19535;50.672;4.206;2022-07-29T07:08:55;4.45;;;2.45;;
33170;SDS011;19535;50.672;4.206;2022-07-29T07:11:22;3.17;;;2.40;;
33170;SDS011;19535;50.672;4.206;2022-07-29T07:13:49;4.80;;;2.30;;
33170;SDS011;19535;50.672;4.206;2022-07-29T07:16:16;3.97;;;2.05;;
33170;SDS011;19535;50.672;4.206;2022-07-29T07:18:43;3.95;;;2.17;;
33170;SDS011;19535;50.672;4.206;2022-07-29T07:21:11;6.40;;;2.10;;
33170;SDS011;19535;50.672;4.206;2022-07-29T07:23:44;4.40;;;2.30;;
33170;SDS011;19535;50.672;4.206;2022-07-29T07:26:12;6.90;;;3.25;;
33170;SDS011;19535;50.672;4.206;2022-07-29T07:28:39;12.00;;;6.97;;
33170;SDS011;19535;50.672;4.206;2022-07-29T07:31:05;8.30;;;5.43;;
33170;SDS011;19535;50.672;4.206;2022-07-29T07:33:32;6.85;;;4.82;;
33170;SDS011;19535;50.672;4.206;2022-07-29T07:35:59;9.05;;;4.10;;
33170;SDS011;19535;50.672;4.206;2022-07-29T07:38:26;5.45;;;4.30;;
33170;SDS011;19535;50.672;4.206;2022-07-29T07:40:53;7.03;;;4.43;;
33170;SDS011;19535;50.672;4.206;2022-07-29T07:43:20;5.70;;;4.10;;
33170;SDS011;19535;50.672;4.206;2022-07-29T07:45:48;5.93;;;3.42;;
33170;SDS011;19535;50.672;4.206;2022-07-29T07:48:15;3.53;;;3.20;;
33170;SDS011;19535;50.672;4.206;2022-07-29T07:50:42;8.68;;;4.00;;
33170;SDS011;19535;50.672;4.206;2022-07-29T07:53:10;5.82;;;3.42;;
33170;SDS011;19535;50.672;4.206;2022-07-29T07:55:40;4.93;;;3.03;;
33170;SDS011;19535;50.672;4.206;2022-07-29T07:58:28;4.22;;;2.63;;
33170;SDS011;19535;50.672;4.206;2022-07-29T08:00:55;2.58;;;2.38;;
33170;SDS011;19535;50.672;4.206;2022-07-29T08:03:22;2.90;;;2.30;;
33170;SDS011;19535;50.672;4.206;2022-07-29T08:05:48;2.65;;;2.30;;
33170;SDS011;19535;50.672;4.206;2022-07-29T08:08:18;3.50;;;2.50;;
33170;SDS011;19535;50.672;4.206;2022-07-29T08:10:45;4.00;;;2.10;;
33170;SDS011;19535;50.672;4.206;2022-07-29T08:13:19;3.17;;;2.30;;
33170;SDS011;19535;50.672;4.206;2022-07-29T08:15:47;4.38;;;2.10;;
33170;SDS011;19535;50.672;4.206;2022-07-29T08:18:23;6.93;;;2.10;;
33170;SDS011;19535;50.672;4.206;2022-07-29T08:20:51;4.03;;;2.40;;
33170;SDS011;19535;50.672;4.206;2022-07-29T08:23:18;5.35;;;3.00;;
33170;SDS011;19535;50.672;4.206;2022-07-29T08:28:15;5.93;;;2.53;;
33170;SDS011;19535;50.672;4.206;2022-07-29T08:30:42;2.63;;;2.20;;
33170;SDS011;19535;50.672;4.206;2022-07-29T08:33:09;4.25;;;2.58;;
33170;SDS011;19535;50.672;4.206;2022-07-29T08:35:36;3.58;;;2.50;;
33170;SDS011;19535;50.672;4.206;2022-07-29T08:38:05;3.93;;;2.47;;
33170;SDS011;19535;50.672;4.206;2022-07-29T08:40:32;3.25;;;2.45;;
33170;SDS011;19535;50.672;4.206;2022-07-29T08:43:03;5.85;;;2.20;;
33170;SDS011;19535;50.672;4.206;2022-07-29T08:48:14;6.40;;;2.15;;
33170;SDS011;19535;50.672;4.206;2022-07-29T08:50:42;5.28;;;1.98;;
33170;SDS011;19535;50.672;4.206;2022-07-29T08:53:16;3.90;;;1.98;;
33170;SDS011;19535;50.672;4.206;2022-07-29T08:55:47;2.90;;;1.55;;
33170;SDS011;19535;50.672;4.206;2022-07-29T08:58:15;2.58;;;1.55;;
33170;SDS011;19535;50.672;4.206;2022-07-29T09:00:52;4.47;;;1.85;;
33170;SDS011;19535;50.672;4.206;2022-07-29T09:03:22;2.97;;;2.53;;
33170;SDS011;19535;50.672;4.206;2022-07-29T09:05:50;4.60;;;2.95;;
33170;SDS011;19535;50.672;4.206;2022-07-29T09:08:18;5.25;;;2.70;;
33170;SDS011;19535;50.672;4.206;2022-07-29T09:10:46;5.93;;;2.30;;
33170;SDS011;19535;50.672;4.206;2022-07-29T09:13:13;3.15;;;2.38;;
33170;SDS011;19535;50.672;4.206;2022-07-29T09:15:40;3.33;;;2.17;;
33170;SDS011;19535;50.672;4.206;2022-07-29T09:18:07;4.45;;;1.98;;
33170;SDS011;19535;50.672;4.206;2022-07-29T09:20:54;2.28;;;1.85;;
33170;SDS011;19535;50.672;4.206;2022-07-29T09:23:39;3.45;;;1.52;;
33170;SDS011;19535;50.672;4.206;2022-07-29T09:26:07;3.65;;;1.90;;
33170;SDS011;19535;50.672;4.206;2022-07-29T09:28:34;2.50;;;1.70;;
33170;SDS011;19535;50.672;4.206;2022-07-29T09:31:08;3.08;;;1.50;;
33170;SDS011;19535;50.672;4.206;2022-07-29T09:33:35;2.35;;;1.65;;
33170;SDS011;19535;50.672;4.206;2022-07-29T09:36:09;3.65;;;1.92;;
33170;SDS011;19535;50.672;4.206;2022-07-29T09:38:37;3.10;;;1.58;;
33170;SDS011;19535;50.672;4.206;2022-07-29T09:41:04;2.42;;;1.42;;
33170;SDS011;19535;50.672;4.206;2022-07-29T09:43:32;2.38;;;1.30;;
33170;SDS011;19535;50.672;4.206;2022-07-29T09:46:12;2.65;;;1.55;;
33170;SDS011;19535;50.672;4.206;2022-07-29T09:48:40;4.88;;;1.55;;
33170;SDS011;19535;50.672;4.206;2022-07-29T09:51:17;1.85;;;1.45;;
33170;SDS011;19535;50.672;4.206;2022-07-29T09:53:48;2.22;;;1.63;;
33170;SDS011;19535;50.672;4.206;2022-07-29T09:56:18;2.80;;;1.33;;
33170;SDS011;19535;50.672;4.206;2022-07-29T09:58:45;2.83;;;1.70;;
33170;SDS011;19535;50.672;4.206;2022-07-29T10:01:12;3.47;;;1.20;;
33170;SDS011;19535;50.672;4.206;2022-07-29T10:03:50;1.95;;;1.40;;
33170;SDS011;19535;50.672;4.206;2022-07-29T10:06:18;2.25;;;1.25;;
33170;SDS011;19535;50.672;4.206;2022-07-29T10:08:45;3.75;;;1.50;;
33170;SDS011;19535;50.672;4.206;2022-07-29T10:11:13;2.13;;;1.50;;
33170;SDS011;19535;50.672;4.206;2022-07-29T10:13:42;4.00;;;1.23;;
33170;SDS011;19535;50.672;4.206;2022-07-29T10:16:10;5.47;;;1.27;;
33170;SDS011;19535;50.672;4.206;2022-07-29T10:18:39;5.13;;;1.90;;
33170;SDS011;19535;50.672;4.206;2022-07-29T10:21:07;5.65;;;2.45;;
33170;SDS011;19535;50.672;4.206;2022-07-29T10:23:47;5.72;;;2.42;;
33170;SDS011;19535;50.672;4.206;2022-07-29T10:26:15;6.05;;;2.42;;
33170;SDS011;19535;50.672;4.206;2022-07-29T10:28:43;4.53;;;2.40;;
33170;SDS011;19535;50.672;4.206;2022-07-29T10:31:12;4.55;;;2.17;;
33170;SDS011;19535;50.672;4.206;2022-07-29T10:34:22;3.50;;;2.33;;
33170;SDS011;19535;50.672;4.206;2022-07-29T10:37:19;4.82;;;2.20;;
33170;SDS011;19535;50.672;4.206;2022-07-29T10:43:27;3.80;;;1.83;;
33170;SDS011;19535;50.672;4.206;2022-07-29T10:45:57;2.38;;;1.50;;
33170;SDS011;19535;50.672;4.206;2022-07-29T10:48:25;4.83;;;2.13;;
33170;SDS011;19535;50.672;4.206;2022-07-29T10:51:00;8.27;;;2.08;;
33170;SDS011;19535;50.672;4.206;2022-07-29T10:53:48;5.50;;;2.50;;
33170;SDS011;19535;50.672;4.206;2022-07-29T10:56:25;4.72;;;2.03;;
33170;SDS011;19535;50.672;4.206;2022-07-29T11:01:47;5.95;;;2.20;;
33170;SDS011;19535;50.672;4.206;2022-07-29T11:04:58;5.43;;;1.95;;
33170;SDS011;19535;50.672;4.206;2022-07-29T11:07:15;4.75;;;1.70;;
33170;SDS011;19535;50.672;4.206;2022-07-29T11:09:42;6.72;;;2.05;;
33170;SDS011;19535;50.672;4.206;2022-07-29T11:12:57;6.15;;;2.08;;
33170;SDS011;19535;50.672;4.206;2022-07-29T11:15:16;5.05;;;2.13;;
33170;SDS011;19535;50.672;4.206;2022-07-29T11:34:16;4.50;;;1.60;;
33170;SDS011;19535;50.672;4.206;2022-07-29T11:39:40;5.68;;;1.42;;
33170;SDS011;19535;50.672;4.206;2022-07-29T11:47:59;5.93;;;1.40;;
33170;SDS011;19535;50.672;4.206;2022-07-29T11:50:46;4.47;;;1.40;;
33170;SDS011;19535;50.672;4.206;2022-07-29T11:53:14;3.72;;;1.17;;
33170;SDS011;19535;50.672;4.206;2022-07-29T11:55:42;4.43;;;1.38;;
33170;SDS011;19535;50.672;4.206;2022-07-29T11:58:21;3.55;;;1.33;;
33170;SDS011;19535;50.672;4.206;2022-07-29T12:00:50;4.70;;;1.25;;
33170;SDS011;19535;50.672;4.206;2022-07-29T12:03:24;3.65;;;1.45;;
33170;SDS011;19535;50.672;4.206;2022-07-29T12:06:00;3.90;;;1.20;;
33170;SDS011;19535;50.672;4.206;2022-07-29T12:08:27;2.67;;;1.00;;
33170;SDS011;19535;50.672;4.206;2022-07-29T12:10:54;2.47;;;1.30;;
33170;SDS011;19535;50.672;4.206;2022-07-29T12:13:21;1.70;;;1.40;;
33170;SDS011;19535;50.672;4.206;2022-07-29T12:16:03;2.97;;;1.60;;
33170;SDS011;19535;50.672;4.206;2022-07-29T12:18:31;2.30;;;1.77;;
33170;SDS011;19535;50.672;4.206;2022-07-29T12:20:59;3.33;;;2.10;;
33170;SDS011;19535;50.672;4.206;2022-07-29T12:23:30;3.03;;;2.20;;
33170;SDS011;19535;50.672;4.206;2022-07-29T12:26:00;4.53;;;2.47;;
33170;SDS011;19535;50.672;4.206;2022-07-29T12:28:39;3.63;;;2.28;;
33170;SDS011;19535;50.672;4.206;2022-07-29T12:31:13;3.85;;;2.08;;
33170;SDS011;19535;50.672;4.206;2022-07-29T12:34:01;4.82;;;2.30;;
33170;SDS011;19535;50.672;4.206;2022-07-29T12:36:28;3.33;;;2.08;;
33170;SDS011;19535;50.672;4.206;2022-07-29T12:38:55;3.70;;;2.10;;
33170;SDS011;19535;50.672;4.206;2022-07-29T12:41:22;2.25;;;1.52;;
33170;SDS011;19535;50.672;4.206;2022-07-29T12:43:53;3.88;;;1.80;;
33170;SDS011;19535;50.672;4.206;2022-07-29T12:46:20;2.65;;;1.95;;
33170;SDS011;19535;50.672;4.206;2022-07-29T12:48:50;4.55;;;1.50;;
33170;SDS011;19535;50.672;4.206;2022-07-29T12:51:31;2.97;;;1.70;;
33170;SDS011;19535;50.672;4.206;2022-07-29T12:56:34;7.63;;;1.70;;
33170;SDS011;19535;50.672;4.206;2022-07-29T12:59:13;4.28;;;2.20;;
33170;SDS011;19535;50.672;4.206;2022-07-29T13:01:42;1.77;;;1.50;;
33170;SDS011;19535;50.672;4.206;2022-07-29T13:04:10;3.70;;;1.65;;
33170;SDS011;19535;50.672;4.206;2022-07-29T13:09:13;4.13;;;1.83;;
33170;SDS011;19535;50.672;4.206;2022-07-29T13:11:49;2.88;;;1.40;;
33170;SDS011;19535;50.672;4.206;2022-07-29T13:14:31;3.47;;;1.55;;
33170;SDS011;19535;50.672;4.206;2022-07-29T13:17:00;3.25;;;1.50;;
33170;SDS011;19535;50.672;4.206;2022-07-29T13:22:00;5.47;;;1.85;;
33170;SDS011;19535;50.672;4.206;2022-07-29T13:24:27;3.83;;;1.30;;
33170;SDS011;19535;50.672;4.206;2022-07-29T13:26:55;4.50;;;1.25;;
33170;SDS011;19535;50.672;4.206;2022-07-29T13:29:22;3.70;;;1.50;;
33170;SDS011;19535;50.672;4.206;2022-07-29T13:31:53;2.75;;;1.38;;
33170;SDS011;19535;50.672;4.206;2022-07-29T13:34:21;3.33;;;1.30;;
33170;SDS011;19535;50.672;4.206;2022-07-29T13:36:50;2.83;;;1.30;;
33170;SDS011;19535;50.672;4.206;2022-07-29T13:39:17;4.70;;;1.52;;
33170;SDS011;19535;50.672;4.206;2022-07-29T13:41:44;2.17;;;1.25;;
33170;SDS011;19535;50.672;4.206;2022-07-29T13:44:11;1.85;;;1.20;;
33170;SDS011;19535;50.672;4.206;2022-07-29T13:46:38;2.67;;;1.30;;
33170;SDS011;19535;50.672;4.206;2022-07-29T13:49:05;4.32;;;1.55;;
33170;SDS011;19535;50.672;4.206;2022-07-29T13:51:32;2.80;;;1.40;;
33170;SDS011;19535;50.672;4.206;2022-07-29T13:53:59;2.35;;;1.15;;
33170;SDS011;19535;50.672;4.206;2022-07-29T13:56:27;2.20;;;1.30;;
33170;SDS011;19535;50.672;4.206;2022-07-29T13:58:54;1.75;;;1.05;;
33170;SDS011;19535;50.672;4.206;2022-07-29T14:01:21;1.40;;;1.20;;
33170;SDS011;19535;50.672;4.206;2022-07-29T14:03:48;2.65;;;1.20;;
33170;SDS011;19535;50.672;4.206;2022-07-29T14:06:15;2.78;;;1.42;;
33170;SDS011;19535;50.672;4.206;2022-07-29T14:08:43;3.15;;;1.48;;
33170;SDS011;19535;50.672;4.206;2022-07-29T14:11:10;2.75;;;1.20;;
33170;SDS011;19535;50.672;4.206;2022-07-29T14:13:37;4.43;;;1.40;;
33170;SDS011;19535;50.672;4.206;2022-07-29T14:16:05;2.97;;;1.52;;
33170;SDS011;19535;50.672;4.206;2022-07-29T14:18:33;2.85;;;1.23;;
33170;SDS011;19535;50.672;4.206;2022-07-29T14:21:00;5.20;;;1.30;;
33170;SDS011;19535;50.672;4.206;2022-07-29T14:23:27;2.33;;;1.50;;
33170;SDS011;19535;50.672;4.206;2022-07-29T14:25:54;4.88;;;1.10;;
33170;SDS011;19535;50.672;4.206;2022-07-29T14:28:21;1.40;;;1.10;;
33170;SDS011;19535;50.672;4.206;2022-07-29T14:30:48;3.53;;;1.27;;
33170;SDS011;19535;50.672;4.206;2022-07-29T14:33:15;1.48;;;1.20;;
33170;SDS011;19535;50.672;4.206;2022-07-29T14:35:42;5.35;;;1.50;;
33170;SDS011;19535;50.672;4.206;2022-07-29T14:38:09;1.38;;;1.17;;
33170;SDS011;19535;50.672;4.206;2022-07-29T14:40:36;2.78;;;1.50;;
33170;SDS011;19535;50.672;4.206;2022-07-29T14:43:04;5.40;;;1.40;;
33170;SDS011;19535;50.672;4.206;2022-07-29T14:45:31;2.97;;;1.52;;
33170;SDS011;19535;50.672;4.206;2022-07-29T14:47:58;4.07;;;1.48;;
33170;SDS011;19535;50.672;4.206;2022-07-29T14:50:26;3.67;;;1.23;;
33170;SDS011;19535;50.672;4.206;2022-07-29T14:52:57;4.28;;;1.65;;
33170;SDS011;19535;50.672;4.206;2022-07-29T14:55:24;4.95;;;1.27;;
33170;SDS011;19535;50.672;4.206;2022-07-29T14:57:52;2.15;;;1.60;;
33170;SDS011;19535;50.672;4.206;2022-07-29T15:00:31;1.58;;;1.13;;
33170;SDS011;19535;50.672;4.206;2022-07-29T15:03:00;3.25;;;1.40;;
33170;SDS011;19535;50.672;4.206;2022-07-29T15:05:28;3.22;;;1.58;;
33170;SDS011;19535;50.672;4.206;2022-07-29T15:07:58;4.00;;;1.20;;
33170;SDS011;19535;50.672;4.206;2022-07-29T15:10:25;2.15;;;1.20;;
33170;SDS011;19535;50.672;4.206;2022-07-29T15:12:53;6.70;;;1.30;;
33170;SDS011;19535;50.672;4.206;2022-07-29T15:15:21;2.08;;;1.08;;
33170;SDS011;19535;50.672;4.206;2022-07-29T15:17:48;2.28;;;1.20;;
33170;SDS011;19535;50.672;4.206;2022-07-29T15:20:15;2.60;;;1.52;;
33170;SDS011;19535;50.672;4.206;2022-07-29T15:22:42;3.28;;;1.02;;
33170;SDS011;19535;50.672;4.206;2022-07-29T15:25:09;1.70;;;1.10;;
33170;SDS011;19535;50.672;4.206;2022-07-29T15:27:37;3.25;;;1.38;;
33170;SDS011;19535;50.672;4.206;2022-07-29T15:30:04;4.53;;;1.38;;
33170;SDS011;19535;50.672;4.206;2022-07-29T15:32:31;2.08;;;1.45;;
33170;SDS011;19535;50.672;4.206;2022-07-29T15:34:58;1.80;;;1.25;;
33170;SDS011;19535;50.672;4.206;2022-07-29T15:37:25;5.25;;;1.40;;
33170;SDS011;19535;50.672;4.206;2022-07-29T15:40:14;5.60;;;1.30;;
33170;SDS011;19535;50.672;4.206;2022-07-29T15:42:41;4.18;;;1.52;;
33170;SDS011;19535;50.672;4.206;2022-07-29T15:45:08;2.70;;;1.40;;
33170;SDS011;19535;50.672;4.206;2022-07-29T15:47:35;2.88;;;1.35;;
33170;SDS011;19535;50.672;4.206;2022-07-29T15:50:02;3.75;;;1.40;;
33170;SDS011;19535;50.672;4.206;2022-07-29T15:52:29;1.70;;;1.27;;
33170;SDS011;19535;50.672;4.206;2022-07-29T15:54:56;3.50;;;1.30;;
33170;SDS011;19535;50.672;4.206;2022-07-29T15:57:23;2.03;;;1.30;;
33170;SDS011;19535;50.672;4.206;2022-07-29T15:59:51;1.92;;;1.20;;
33170;SDS011;19535;50.672;4.206;2022-07-29T16:02:18;2.20;;;1.20;;
33170;SDS011;19535;50.672;4.206;2022-07-29T16:04:45;2.78;;;1.45;;
33170;SDS011;19535;50.672;4.206;2022-07-29T16:07:12;3.42;;;1.38;;
33170;SDS011;19535;50.672;4.206;2022-07-29T16:09:40;3.83;;;1.20;;